Time;durP1;ratioP1;P1;durP2;ratioP2;P2;SDS_P1;SDS_P2;PMS_P1;PMS_P2;Temp;Humidity;BMP_temperature;BMP_pressure;BME280_temperature;BME280_humidity;BME280_pressure;Samples;Min_cycle;Max_cycle;Signal;HPM_P1;HPM_P2
2022/08/06 00:00:20;;;;;;;7.50;2.33;;;;;;;15.09;62.03;102488.56;5279069;28;20028;-70
2022/08/06 00:02:51;;;;;;;9.63;2.33;;;;;;;15.52;61.22;102480.13;5297771;28;20034;-70
2022/08/06 00:05:23;;;;;;;5.97;1.67;;;;;;;15.15;62.09;102475.03;5296556;28;20032;-70
2022/08/06 00:07:56;;;;;;;9.60;1.90;;;;;;;15.55;61.20;102489.66;5297360;28;20039;-70
2022/08/06 00:10:28;;;;;;;7.70;1.80;;;;;;;15.42;61.40;102482.41;5297465;28;20023;-70
2022/08/06 00:13:00;;;;;;;11.90;2.53;;;;;;;15.20;62.17;102485.38;5297565;28;20021;-70
2022/08/06 00:15:33;;;;;;;8.27;2.00;;;;;;;15.19;62.37;102484.50;5296793;28;20071;-70
2022/08/06 00:18:04;;;;;;;9.73;2.40;;;;;;;14.94;62.94;102491.06;5296252;28;20024;-71
2022/08/06 00:20:35;;;;;;;12.17;2.33;;;;;;;14.84;63.23;102492.47;5297346;28;20031;-71
2022/08/06 00:23:06;;;;;;;6.40;2.23;;;;;;;15.17;62.45;102480.25;5279085;28;20024;-70
2022/08/06 00:25:38;;;;;;;7.20;2.10;;;;;;;14.86;63.26;102498.53;5296912;28;20027;-73
2022/08/06 00:28:09;;;;;;;8.27;3.00;;;;;;;15.16;63.13;102504.94;5297349;28;20039;-71
2022/08/06 00:30:41;;;;;;;7.27;2.30;;;;;;;15.00;63.12;102498.69;5261675;28;20036;-71
2022/08/06 00:33:13;;;;;;;7.00;2.00;;;;;;;14.81;63.64;102501.44;5296200;28;20511;-71
2022/08/06 00:35:44;;;;;;;8.80;2.37;;;;;;;15.02;63.26;102511.78;5297240;28;20047;-70
2022/08/06 00:38:15;;;;;;;6.87;1.97;;;;;;;15.05;63.09;102510.75;5296683;28;20039;-70
2022/08/06 00:40:48;;;;;;;15.23;3.07;;;;;;;15.07;63.12;102511.53;5278685;28;20130;-70
2022/08/06 00:43:19;;;;;;;8.10;2.43;;;;;;;14.68;63.95;102501.16;5296553;28;20253;-71
2022/08/06 00:45:50;;;;;;;4.67;1.90;;;;;;;14.49;64.88;102507.38;5297115;28;20073;-70
2022/08/06 00:48:22;;;;;;;8.27;2.60;;;;;;;14.95;63.57;102507.75;5295740;28;20024;-70
2022/08/06 00:50:53;;;;;;;8.57;2.43;;;;;;;14.98;63.16;102503.19;5296807;28;20735;-70
2022/08/06 00:53:24;;;;;;;9.10;2.70;;;;;;;15.03;63.30;102515.28;5296478;28;20473;-70
2022/08/06 00:55:56;;;;;;;9.03;2.43;;;;;;;14.94;63.36;102520.09;5296902;28;20464;-70
2022/08/06 00:58:28;;;;;;;8.13;2.33;;;;;;;14.95;63.25;102516.53;5278048;28;20034;-70
2022/08/06 01:00:59;;;;;;;8.50;3.20;;;;;;;14.65;64.21;102517.13;5278392;28;20130;-70
2022/08/06 01:03:30;;;;;;;7.43;2.70;;;;;;;14.55;64.94;102531.72;5295529;28;20438;-70
2022/08/06 01:06:02;;;;;;;8.67;2.33;;;;;;;14.71;64.66;102526.53;5296309;28;20387;-70
2022/08/06 01:08:33;;;;;;;6.60;2.13;;;;;;;14.62;64.31;102504.13;5296615;28;20038;-70
2022/08/06 01:11:05;;;;;;;6.70;2.83;;;;;;;14.69;64.51;102539.78;5296477;28;20058;-71
2022/08/06 01:13:36;;;;;;;12.37;2.73;;;;;;;14.73;64.73;102538.69;5278137;28;20028;-70
2022/08/06 01:16:13;;;;;;;7.03;2.00;;;;;;;14.81;64.07;102542.75;5296376;28;20028;-70
2022/08/06 01:19:19;;;;;;;6.20;1.90;;;;;;;14.56;65.21;102549.22;5295595;28;20028;-71
2022/08/06 01:22:14;;;;;;;10.00;2.80;;;;;;;14.41;65.53;102538.53;5296656;28;20024;-70
2022/08/06 01:25:18;;;;;;;10.38;2.50;;;;;;;14.45;65.72;102547.97;5296353;28;20606;-71
2022/08/06 01:27:59;;;;;;;7.77;2.40;;;;;;;14.27;66.64;102549.75;5296180;28;20020;-70
2022/08/06 01:30:36;;;;;;;7.40;1.93;;;;;;;14.35;66.56;102541.44;5295692;28;20028;-70
2022/08/06 01:33:14;;;;;;;8.37;2.30;;;;;;;14.25;66.58;102547.19;5277082;28;20618;-71
2022/08/06 01:35:51;;;;;;;7.27;2.20;;;;;;;14.15;67.38;102552.03;5296298;28;20028;-71
2022/08/06 01:38:32;;;;;;;7.50;2.20;;;;;;;14.44;66.18;102556.81;5277741;28;20024;-71
2022/08/06 01:41:07;;;;;;;5.00;2.10;;;;;;;14.35;66.70;102544.94;5296205;28;20147;-70
2022/08/06 01:43:41;;;;;;;9.73;2.57;;;;;;;14.36;66.49;102548.44;5295623;28;20024;-70
2022/08/06 01:46:15;;;;;;;6.60;2.53;;;;;;;14.37;66.32;102551.00;5296260;28;20036;-70
2022/08/06 01:48:47;;;;;;;7.07;2.43;;;;;;;14.28;66.55;102547.03;5294995;28;20799;-70
2022/08/06 01:51:18;;;;;;;6.63;1.83;;;;;;;14.31;66.50;102553.09;5296008;28;20036;-70
2022/08/06 01:53:52;;;;;;;7.07;2.03;;;;;;;14.20;66.96;102540.41;5277652;28;20020;-70
2022/08/06 01:56:23;;;;;;;7.65;2.35;;;;;;;14.24;67.13;102545.47;5277320;28;20026;-70
2022/08/06 01:58:57;;;;;;;11.23;3.13;;;;;;;14.09;67.67;102547.06;5277648;28;20020;-70
2022/08/06 02:01:30;;;;;;;6.80;2.07;;;;;;;13.92;68.90;102550.50;5277794;28;20067;-70
2022/08/06 02:04:03;;;;;;;10.27;3.92;;;;;;;14.08;68.00;102549.78;5295408;28;20028;-70
2022/08/06 02:06:45;;;;;;;6.40;2.10;;;;;;;14.18;67.42;102551.03;5295891;28;20032;-70
2022/08/06 02:09:20;;;;;;;9.37;2.77;;;;;;;14.03;68.23;102548.19;5277534;28;20089;-70
2022/08/06 02:11:56;;;;;;;10.33;2.40;;;;;;;14.14;68.04;102552.09;5295766;28;20059;-70
2022/08/06 02:14:30;;;;;;;10.17;2.37;;;;;;;13.82;69.33;102559.75;5277433;28;20028;-71
2022/08/06 02:17:03;;;;;;;;;;;;;;;14.25;65.93;102557.72;5296370;28;20388;-70
2022/08/06 02:19:36;;;;;;;9.63;2.43;;;;;;;14.09;67.94;102551.47;5276542;28;19939;-70
2022/08/06 02:22:08;;;;;;;7.10;2.60;;;;;;;14.01;68.46;102550.06;5295793;28;20480;-70
2022/08/06 02:24:39;;;;;;;10.03;2.70;;;;;;;14.00;68.65;102548.34;5295553;28;20082;-70
2022/08/06 02:27:12;;;;;;;11.53;2.23;;;;;;;13.91;68.82;102561.97;5295450;28;20051;-70
2022/08/06 02:29:45;;;;;;;9.33;3.00;;;;;;;13.79;69.15;102553.69;5295146;28;20024;-71
2022/08/06 02:32:17;;;;;;;9.73;2.20;;;;;;;13.83;69.20;102558.81;5295326;28;20439;-70
2022/08/06 02:34:48;;;;;;;8.83;2.20;;;;;;;13.95;68.87;102560.88;5260108;28;20365;-71
2022/08/06 02:37:29;;;;;;;4.43;1.97;;;;;;;13.84;69.18;102552.63;5278340;28;20035;-70
2022/08/06 02:40:09;;;;;;;7.13;2.13;;;;;;;13.71;70.05;102562.88;5299184;28;20124;-70
2022/08/06 02:43:03;;;;;;;6.87;2.10;;;;;;;13.91;68.70;102564.59;5299160;28;20044;-70
2022/08/06 02:45:45;;;;;;;5.93;2.05;;;;;;;13.74;69.74;102554.81;5298901;28;20012;-70
2022/08/06 02:48:41;;;;;;;10.03;2.60;;;;;;;13.72;69.92;102559.34;5279945;28;20383;-71
2022/08/06 02:51:17;;;;;;;7.17;2.33;;;;;;;13.74;69.90;102557.47;5299333;28;20043;-70
2022/08/06 02:54:04;;;;;;;6.00;2.50;;;;;;;13.69;70.16;102551.56;5280723;28;20062;-70
2022/08/06 02:56:42;;;;;;;6.70;2.87;;;;;;;13.31;71.86;102546.16;5298775;28;20051;-70
2022/08/06 02:59:19;;;;;;;7.77;2.50;;;;;;;13.23;72.34;102552.69;5298591;28;20085;-73
2022/08/06 03:01:56;;;;;;;10.77;2.53;;;;;;;13.20;72.82;102561.53;5298898;28;20095;-70
2022/08/06 03:04:29;;;;;;;6.23;2.57;;;;;;;13.11;73.08;102554.06;5297992;28;20024;-70
2022/08/06 03:07:06;;;;;;;7.67;2.27;;;;;;;13.41;72.33;102556.25;5298704;28;20032;-70
2022/08/06 03:09:39;;;;;;;8.30;2.27;;;;;;;13.48;71.41;102555.06;5298398;28;20381;-70
2022/08/06 03:12:13;;;;;;;8.07;2.90;;;;;;;13.46;71.79;102564.81;5299062;28;20024;-70
2022/08/06 03:14:47;;;;;;;8.30;2.10;;;;;;;13.16;72.94;102562.63;5298967;28;20032;-70
2022/08/06 03:17:20;;;;;;;6.20;2.15;;;;;;;12.97;73.88;102557.28;5298245;28;20106;-70
2022/08/06 03:19:52;;;;;;;7.20;2.40;;;;;;;13.26;73.17;102568.31;5279752;28;20444;-70
2022/08/06 03:22:25;;;;;;;11.60;3.10;;;;;;;13.28;73.00;102572.59;5298265;28;20032;-71
2022/08/06 03:24:58;;;;;;;8.30;2.90;;;;;;;13.27;72.98;102565.63;5280389;28;20015;-70
2022/08/06 03:27:31;;;;;;;11.37;2.67;;;;;;;13.36;72.51;102574.03;5280158;28;20472;-70
2022/08/06 03:30:03;;;;;;;6.50;3.20;;;;;;;13.34;72.54;102565.34;5280050;28;20047;-70
2022/08/06 03:32:36;;;;;;;8.47;3.13;;;;;;;13.38;72.36;102577.44;5278653;28;20066;-70
2022/08/06 03:35:09;;;;;;;7.97;3.27;;;;;;;13.27;72.86;102578.78;5298416;28;20093;-70
2022/08/06 03:37:42;;;;;;;11.17;2.73;;;;;;;13.22;72.92;102567.59;5298012;28;20543;-70
2022/08/06 03:40:16;;;;;;;8.90;3.23;;;;;;;13.27;73.59;102576.16;5297690;28;20048;-73
2022/08/06 03:42:48;;;;;;;5.57;2.70;;;;;;;13.19;73.39;102578.25;5279853;28;20422;-70
2022/08/06 03:45:19;;;;;;;9.57;3.33;;;;;;;13.26;73.15;102582.34;5297969;28;20012;-70
2022/08/06 03:47:57;;;;;;;5.87;3.33;;;;;;;13.07;74.40;102577.84;5297205;28;20024;-71
2022/08/06 03:50:33;;;;;;;9.90;3.83;;;;;;;13.12;74.31;102577.69;5298209;28;20024;-70
2022/08/06 03:53:24;;;;;;;6.33;2.23;;;;;;;13.01;74.63;102591.28;5279848;28;20081;-70
2022/08/06 03:55:58;;;;;;;9.03;2.83;;;;;;;13.02;74.52;102597.41;5298043;28;20101;-70
2022/08/06 03:58:32;;;;;;;6.20;2.88;;;;;;;12.93;74.88;102594.22;5279604;28;20105;-70
2022/08/06 04:01:09;;;;;;;8.23;2.40;;;;;;;13.05;74.49;102592.00;5297605;28;20028;-70
2022/08/06 04:03:41;;;;;;;6.77;2.37;;;;;;;13.07;74.03;102600.69;5296746;28;20095;-70
2022/08/06 04:06:13;;;;;;;10.97;2.93;;;;;;;13.00;74.71;102604.50;5279438;28;20503;-70
2022/08/06 04:08:45;;;;;;;9.60;3.33;;;;;;;13.00;74.76;102604.50;5297803;28;20480;-70
2022/08/06 04:11:18;;;;;;;10.83;3.50;;;;;;;13.00;74.52;102605.34;5278769;28;20024;-71
2022/08/06 04:13:50;;;;;;;6.73;2.77;;;;;;;12.92;75.02;102608.28;5297684;28;20078;-70
2022/08/06 04:16:21;;;;;;;6.53;2.80;;;;;;;12.93;74.84;102614.41;5296322;28;20051;-70
2022/08/06 04:18:55;;;;;;;7.87;3.23;;;;;;;12.97;74.59;102615.97;5296516;28;20031;-70
2022/08/06 04:21:27;;;;;;;7.78;2.90;;;;;;;12.81;75.23;102616.63;5297076;28;20495;-70
2022/08/06 04:23:58;;;;;;;9.50;2.70;;;;;;;12.94;74.94;102622.25;5279233;28;20115;-70
2022/08/06 04:26:30;;;;;;;7.70;3.00;;;;;;;12.91;74.59;102611.00;5297132;28;20038;-70
2022/08/06 04:29:02;;;;;;;8.33;2.93;;;;;;;12.87;75.33;102617.28;5297296;28;20051;-70
2022/08/06 04:31:34;;;;;;;9.43;3.50;;;;;;;12.87;75.21;102625.19;5296947;28;20038;-70
2022/08/06 04:34:06;;;;;;;10.37;3.20;;;;;;;12.80;75.38;102624.56;5296343;28;20028;-70
2022/08/06 04:36:38;;;;;;;7.13;2.80;;;;;;;12.77;75.67;102622.94;5296574;28;20032;-70
2022/08/06 04:39:09;;;;;;;10.10;3.50;;;;;;;12.72;75.93;102632.78;5297075;28;20044;-70
2022/08/06 04:41:41;;;;;;;11.33;3.00;;;;;;;12.52;76.81;102618.66;5278420;28;20883;-70
2022/08/06 04:44:13;;;;;;;9.93;3.17;;;;;;;12.75;76.12;102627.41;5296960;28;20027;-70
2022/08/06 04:46:48;;;;;;;6.90;3.03;;;;;;;12.77;76.05;102629.97;5296870;28;20032;-71
2022/08/06 04:49:20;;;;;;;7.80;2.90;;;;;;;12.71;76.26;102625.81;5295689;28;20036;-70
2022/08/06 04:51:51;;;;;;;11.47;3.30;;;;;;;12.33;77.53;102626.41;5296389;28;20114;-70
2022/08/06 04:54:23;;;;;;;8.70;3.30;;;;;;;12.39;78.01;102630.56;5296728;28;20028;-70
2022/08/06 04:56:54;;;;;;;9.60;3.10;;;;;;;12.29;79.42;102635.31;5278426;28;20544;-70
2022/08/06 04:59:25;;;;;;;8.40;3.27;;;;;;;12.28;79.27;102629.22;5277553;28;20025;-70
2022/08/06 05:01:56;;;;;;;11.47;3.63;;;;;;;12.52;78.60;102637.06;5296653;28;20024;-70
2022/08/06 05:04:33;;;;;;;5.23;2.90;;;;;;;12.24;81.70;102640.75;5295432;28;20030;-70
2022/08/06 05:07:20;;;;;;;7.97;3.23;;;;;;;12.46;80.34;102643.41;5296361;28;20032;-70
2022/08/06 05:09:51;;;;;;;9.73;3.60;;;;;;;12.37;80.93;102646.41;5296317;28;20047;-70
2022/08/06 05:12:38;;;;;;;12.17;4.03;;;;;;;12.66;79.28;102646.16;5296204;28;20477;-70
2022/08/06 05:15:36;;;;;;;9.83;3.70;;;;;;;12.56;81.15;102654.44;5278307;28;20169;-70
2022/08/06 05:18:12;;;;;;;7.63;3.03;;;;;;;12.57;81.41;102648.25;5277251;28;20076;-70
2022/08/06 05:20:49;;;;;;;7.93;3.67;;;;;;;12.63;81.46;102649.78;5295817;28;20089;-71
2022/08/06 05:23:26;;;;;;;6.80;3.23;;;;;;;12.52;82.44;102651.97;5295977;28;20043;-70
2022/08/06 05:25:58;;;;;;;9.47;3.30;;;;;;;12.60;83.26;102651.66;5296581;28;20070;-70
2022/08/06 05:28:30;;;;;;;7.63;3.17;;;;;;;12.57;83.94;102648.25;5277694;28;20028;-70
2022/08/06 05:31:02;;;;;;;7.77;3.50;;;;;;;12.65;83.35;102661.09;5296477;28;20024;-70
2022/08/06 05:33:37;;;;;;;7.53;4.10;;;;;;;12.71;83.20;102657.34;5295130;28;20055;-70
2022/08/06 05:36:11;;;;;;;8.43;3.67;;;;;;;12.78;83.86;102664.06;5296424;28;20499;-70
2022/08/06 05:38:42;;;;;;;9.23;3.58;;;;;;;12.80;84.13;102662.25;5295770;28;20028;-70
2022/08/06 05:41:14;;;;;;;11.53;3.87;;;;;;;12.69;84.65;102653.91;5295430;28;20046;-70
2022/08/06 05:43:46;;;;;;;7.60;3.70;;;;;;;12.85;85.23;102663.81;5296085;28;20035;-70
2022/08/06 05:46:20;;;;;;;8.33;3.20;;;;;;;13.01;84.67;102670.19;5295797;28;20402;-70
2022/08/06 05:48:57;;;;;;;8.23;3.10;;;;;;;13.00;85.96;102672.88;5295000;28;20134;-70
2022/08/06 05:51:37;;;;;;;9.40;3.73;;;;;;;13.13;84.27;102678.47;5295539;28;20071;-70
2022/08/06 05:54:34;;;;;;;8.33;3.27;;;;;;;13.33;82.72;102679.44;5296341;28;20063;-70
2022/08/06 05:57:11;;;;;;;7.93;3.30;;;;;;;13.34;84.31;102671.47;5295644;28;20476;-70
2022/08/06 05:59:50;;;;;;;9.77;3.50;;;;;;;13.34;84.31;102673.22;5277066;28;20484;-70
2022/08/06 06:02:23;;;;;;;10.07;3.47;;;;;;;13.44;83.93;102677.19;5294908;28;20024;-70
2022/08/06 06:04:54;;;;;;;12.20;2.90;;;;;;;13.39;84.87;102679.16;5311347;28;20024;-70
2022/08/06 06:07:26;;;;;;;9.70;3.27;;;;;;;13.45;85.51;102684.19;5295647;28;20028;-70
2022/08/06 06:09:58;;;;;;;8.40;3.83;;;;;;;13.47;85.59;102682.34;5295504;28;20392;-70
2022/08/06 06:12:30;;;;;;;7.37;2.57;;;;;;;13.47;85.87;102687.59;5297248;28;20076;-70
2022/08/06 06:15:03;;;;;;;9.97;2.70;;;;;;;13.67;83.06;102681.50;5281485;28;20034;-70
2022/08/06 06:17:49;;;;;;;8.67;3.20;;;;;;;13.70;83.98;102683.13;5298460;28;20039;-70
2022/08/06 06:20:35;;;;;;;8.63;3.07;;;;;;;13.76;84.15;102682.88;5299658;28;20269;-70
2022/08/06 06:23:12;;;;;;;8.30;3.27;;;;;;;13.78;84.13;102688.94;5300052;28;20459;-70
2022/08/06 06:25:47;;;;;;;8.20;2.60;;;;;;;13.75;83.84;102675.88;5298959;28;20059;-70
2022/08/06 06:28:48;;;;;;;11.37;2.57;;;;;;;13.89;81.89;102677.06;5299477;28;20028;-70
2022/08/06 06:31:30;;;;;;;11.17;2.77;;;;;;;13.88;83.22;102685.88;5280704;28;20043;-70
2022/08/06 06:34:13;;;;;;;10.03;2.97;;;;;;;13.97;82.33;102692.50;5298742;28;20042;-70
2022/08/06 06:36:50;;;;;;;9.33;3.17;;;;;;;14.01;83.50;102692.31;5280952;28;20484;-70
2022/08/06 06:39:30;;;;;;;11.33;3.37;;;;;;;14.05;82.44;102692.19;5280158;28;20400;-70
2022/08/06 06:42:17;;;;;;;9.60;2.97;;;;;;;14.07;82.25;102687.72;5299433;28;20531;-70
2022/08/06 06:45:07;;;;;;;8.27;2.43;;;;;;;14.19;81.74;102699.47;5299225;28;20028;-71
2022/08/06 06:47:54;;;;;;;10.90;2.77;;;;;;;14.28;80.93;102689.34;5297860;28;20027;-70
2022/08/06 06:50:28;;;;;;;10.37;2.50;;;;;;;14.30;81.82;102685.78;5280468;28;20032;-70
2022/08/06 06:53:01;;;;;;;5.13;2.00;;;;;;;14.36;81.87;102690.78;5299070;28;20032;-70
2022/08/06 06:55:37;;;;;;;11.40;3.17;;;;;;;14.39;80.92;102690.63;5280509;28;20051;-70
2022/08/06 06:58:20;;;;;;;6.43;2.13;;;;;;;14.45;81.67;102692.13;5298921;28;20039;-70
2022/08/06 07:00:53;;;;;;;6.33;1.53;;;;;;;14.58;79.55;102702.94;5280493;28;20032;-70
2022/08/06 07:03:27;;;;;;;3.53;1.13;;;;;;;14.69;79.73;102695.38;5297480;28;20034;-70
2022/08/06 07:06:00;;;;;;;6.93;2.20;;;;;;;14.80;78.59;102694.84;5298887;28;20031;-70
2022/08/06 07:08:34;;;;;;;8.33;1.63;;;;;;;14.96;78.86;102691.50;5298409;28;20067;-70
2022/08/06 07:11:06;;;;;;;6.20;1.52;;;;;;;15.01;75.88;102681.56;5280398;28;20020;-69
2022/08/06 07:13:40;;;;;;;7.23;1.47;;;;;;;15.31;75.70;102703.84;5298579;28;20023;-70
2022/08/06 07:16:13;;;;;;;12.07;1.80;;;;;;;15.50;75.44;102709.06;5298370;28;20030;-70
2022/08/06 07:18:46;;;;;;;7.13;1.30;;;;;;;15.78;74.07;102709.44;5297820;28;20028;-71
2022/08/06 07:21:19;;;;;;;6.50;1.30;;;;;;;15.96;71.18;102705.81;5279821;28;20020;-70
2022/08/06 07:23:52;;;;;;;7.03;1.17;;;;;;;16.26;68.45;102714.00;5298471;28;20040;-70
2022/08/06 07:26:24;;;;;;;2.33;0.80;;;;;;;16.59;67.63;102706.91;5279829;28;20434;-70
2022/08/06 07:28:57;;;;;;;2.83;0.90;;;;;;;16.94;65.77;102712.00;5298540;28;20032;-70
2022/08/06 07:31:31;;;;;;;5.72;1.27;;;;;;;17.36;63.97;102707.00;5297818;28;20047;-70
2022/08/06 07:34:03;;;;;;;2.72;0.70;;;;;;;17.61;61.69;102716.09;5297758;28;20028;-70
2022/08/06 07:36:46;;;;;;;3.93;0.80;;;;;;;18.25;61.23;102720.22;5297809;28;20396;-70
2022/08/06 07:39:29;;;;;;;6.00;1.17;;;;;;;18.94;58.36;102721.16;5297765;28;20028;-70
2022/08/06 07:42:07;;;;;;;5.90;1.13;;;;;;;19.44;57.55;102725.00;5298301;28;20039;-70
2022/08/06 07:44:47;;;;;;;4.20;1.30;;;;;;;20.05;54.79;102721.72;5297593;28;20284;-70
2022/08/06 07:47:22;;;;;;;6.43;1.00;;;;;;;20.46;53.14;102726.81;5297211;28;20103;-70
2022/08/06 07:49:57;;;;;;;6.35;0.98;;;;;;;21.16;50.53;102720.88;5279601;28;20476;-70
2022/08/06 07:52:30;;;;;;;3.55;1.20;;;;;;;21.32;49.80;102720.56;5297772;28;20028;-70
2022/08/06 07:55:02;;;;;;;4.22;1.17;;;;;;;22.15;48.21;102716.88;5297774;28;20055;-70
2022/08/06 07:57:33;;;;;;;4.57;1.00;;;;;;;22.28;47.43;102726.56;5297939;28;20059;-70
2022/08/06 08:00:07;;;;;;;4.80;1.10;;;;;;;22.75;46.41;102731.69;5297669;28;20111;-70
2022/08/06 08:02:38;;;;;;;5.43;1.15;;;;;;;22.97;45.72;102721.88;5296474;28;20024;-70
2022/08/06 08:07:59;;;;;;;6.20;1.10;;;;;;;23.78;43.72;102730.25;5297619;28;20109;-71
2022/08/06 08:10:31;;;;;;;6.88;1.70;;;;;;;24.04;42.72;102727.13;5297434;28;20063;-70
2022/08/06 08:13:02;;;;;;;4.70;1.35;;;;;;;23.58;42.36;102727.47;5297310;28;20762;-70
2022/08/06 08:15:34;;;;;;;3.13;1.17;;;;;;;24.33;42.31;102736.25;5297446;28;20099;-70
2022/08/06 08:18:05;;;;;;;5.43;1.10;;;;;;;24.33;41.83;102745.09;5296627;28;20030;-70
2022/08/06 08:20:39;;;;;;;6.22;1.38;;;;;;;24.69;40.49;102741.06;5297164;28;20031;-70
2022/08/06 08:23:12;;;;;;;4.80;0.88;;;;;;;24.99;39.30;102733.91;5297227;28;20023;-70
2022/08/06 08:25:44;;;;;;;4.38;0.60;;;;;;;25.02;38.88;102733.63;5296854;28;20032;-71
2022/08/06 08:28:15;;;;;;;2.83;0.63;;;;;;;26.01;36.75;102732.53;5278280;28;20028;-70
2022/08/06 08:30:47;;;;;;;4.13;1.35;;;;;;;25.97;36.78;102740.84;5297427;28;20079;-71
2022/08/06 08:33:19;;;;;;;2.60;0.77;;;;;;;25.76;36.36;102737.56;5295943;28;20031;-70
2022/08/06 08:35:51;;;;;;;3.67;0.70;;;;;;;26.79;34.93;102739.19;5296438;28;20476;-70
2022/08/06 08:38:23;;;;;;;4.03;0.80;;;;;;;26.76;34.80;102739.50;5296964;28;20020;-70
2022/08/06 08:40:55;;;;;;;4.35;1.40;;;;;;;26.62;35.01;102734.69;5296717;28;20129;-71
2022/08/06 08:43:35;;;;;;;7.63;1.23;;;;;;;27.49;34.25;102733.19;5296680;28;20064;-71
2022/08/06 08:46:07;;;;;;;4.40;1.00;;;;;;;27.46;33.67;102733.47;5278905;28;20028;-70
2022/08/06 08:48:40;;;;;;;3.40;0.68;;;;;;;27.78;32.54;102735.53;5295180;28;20491;-70
2022/08/06 08:51:13;;;;;;;3.50;0.80;;;;;;;27.37;32.95;102738.00;5296861;28;20089;-71
2022/08/06 08:53:52;;;;;;;1.73;1.02;;;;;;;28.25;31.81;102741.41;5278519;28;20028;-70
2022/08/06 08:56:24;;;;;;;3.70;0.95;;;;;;;27.96;31.41;102745.34;5277863;28;20477;-70
2022/08/06 08:58:56;;;;;;;6.30;1.63;;;;;;;28.31;29.90;102739.06;5296310;28;20043;-70
2022/08/06 09:01:27;;;;;;;2.63;0.73;;;;;;;28.56;29.62;102744.50;5296887;28;20028;-70
2022/08/06 09:04:03;;;;;;;4.68;0.90;;;;;;;29.49;29.02;102740.72;5295723;28;20028;-70
2022/08/06 09:06:36;;;;;;;5.30;0.90;;;;;;;28.43;29.98;102745.00;5296302;28;20050;-70
2022/08/06 09:09:08;;;;;;;3.10;0.55;;;;;;;27.53;30.98;102748.84;5296288;28;20475;-71
2022/08/06 09:11:39;;;;;;;3.22;0.80;;;;;;;27.97;31.65;102749.75;5277967;28;20040;-70
2022/08/06 09:14:11;;;;;;;3.22;0.88;;;;;;;28.06;30.73;102749.75;5296254;28;20089;-70
2022/08/06 09:16:42;;;;;;;2.63;0.90;;;;;;;27.74;30.82;102742.22;5277131;28;20028;-70
2022/08/06 09:19:13;;;;;;;4.53;1.20;;;;;;;27.02;32.04;102746.78;5295569;28;20030;-71
2022/08/06 09:21:45;;;;;;;3.97;1.27;;;;;;;26.48;33.64;102761.06;5296388;28;20028;-71
2022/08/06 09:24:17;;;;;;;4.00;1.10;;;;;;;25.80;34.10;102742.47;5277808;28;20032;-71
2022/08/06 09:27:08;;;;;;;7.30;1.20;;;;;;;26.21;34.48;102744.84;5296026;28;20488;-70
2022/08/06 09:29:56;;;;;;;4.18;0.80;;;;;;;26.25;34.31;102750.72;5295797;28;20153;-71
2022/08/06 09:32:45;;;;;;;1.77;0.60;;;;;;;27.32;32.17;102756.44;5294883;28;20380;-70
2022/08/06 09:35:30;;;;;;;2.10;0.63;;;;;;;27.73;30.71;102745.94;5277408;28;20433;-70
2022/08/06 09:38:04;;;;;;;1.60;0.68;;;;;;;27.62;30.32;102743.47;5296217;28;20027;-70
2022/08/06 09:40:35;;;;;;;2.45;0.80;;;;;;;27.88;29.65;102746.16;5295432;28;20040;-70
2022/08/06 09:43:07;;;;;;;4.63;0.63;;;;;;;28.65;29.39;102753.44;5296160;28;20028;-71
2022/08/06 09:45:44;;;;;;;3.55;0.75;;;;;;;29.31;29.76;102747.19;5295893;28;20114;-70
2022/08/06 09:48:15;;;;;;;3.78;0.93;;;;;;;29.66;27.84;102745.09;5281042;28;20032;-71
2022/08/06 09:50:47;;;;;;;1.38;0.60;;;;;;;29.51;27.76;102744.09;5300120;28;20491;-70
2022/08/06 09:53:18;;;;;;;4.40;0.85;;;;;;;30.57;26.63;102752.88;5300187;28;20034;-70
2022/08/06 09:55:51;;;;;;;1.25;0.70;;;;;;;29.28;27.31;102750.22;5299995;28;20077;-70
2022/08/06 09:58:28;;;;;;;2.70;0.80;;;;;;;29.41;27.51;102758.63;5300344;28;20032;-70
2022/08/06 10:01:22;;;;;;;3.95;0.50;;;;;;;29.53;28.30;102756.44;5300075;28;20056;-70
2022/08/06 10:03:56;;;;;;;2.03;0.73;;;;;;;29.42;27.64;102757.63;5280646;28;20120;-70
2022/08/06 10:06:28;;;;;;;2.28;0.80;;;;;;;29.33;26.46;102758.66;5300229;28;20030;-71
2022/08/06 10:09:08;;;;;;;3.08;0.65;;;;;;;29.19;27.83;102758.34;5299989;28;20746;-70
2022/08/06 10:11:41;;;;;;;2.92;0.68;;;;;;;28.88;26.86;102756.31;5299439;28;20028;-71
2022/08/06 10:14:27;;;;;;;1.27;0.50;;;;;;;29.58;26.80;102748.66;5300016;28;20028;-70
2022/08/06 10:17:07;;;;;;;2.20;0.60;;;;;;;28.45;27.56;102757.28;5280999;28;20387;-70
2022/08/06 10:19:41;;;;;;;1.58;0.55;;;;;;;28.08;26.85;102755.84;5281260;28;20519;-70
2022/08/06 10:22:15;;;;;;;3.33;0.90;;;;;;;29.46;26.02;102748.16;5281522;28;20047;-70
2022/08/06 10:24:50;;;;;;;2.70;0.63;;;;;;;29.67;25.16;102751.34;5299885;28;20047;-70
2022/08/06 10:27:37;;;;;;;3.42;0.40;;;;;;;29.52;25.43;102746.63;5299215;28;20471;-71
2022/08/06 10:30:10;;;;;;;3.55;0.60;;;;;;;30.66;24.48;102746.41;5281403;28;20155;-70
2022/08/06 10:32:55;;;;;;;5.82;0.63;;;;;;;30.90;25.38;102737.25;5279839;28;20020;-70
2022/08/06 10:35:26;;;;;;;3.63;1.00;;;;;;;29.97;25.32;102734.50;5299126;28;20023;-70
2022/08/06 10:38:05;;;;;;;2.63;0.70;;;;;;;30.49;23.68;102732.19;5299089;28;20028;-71
2022/08/06 10:40:38;;;;;;;1.85;0.50;;;;;;;30.66;23.47;102730.19;5298729;28;20048;-70
2022/08/06 10:43:10;;;;;;;2.53;0.68;;;;;;;31.95;21.85;102732.03;5299485;28;20020;-71
2022/08/06 10:45:42;;;;;;;0.73;0.32;;;;;;;30.71;23.08;102726.91;5280294;28;20039;-71
2022/08/06 10:48:15;;;;;;;2.65;0.57;;;;;;;30.17;23.19;102732.19;5297329;28;20020;-71
2022/08/06 10:50:47;;;;;;;2.08;0.45;;;;;;;31.06;23.16;102730.00;5299237;28;20036;-71
2022/08/06 10:53:18;;;;;;;1.67;0.60;;;;;;;30.58;23.88;102722.97;5298781;28;20472;-71
2022/08/06 10:55:49;;;;;;;2.40;0.60;;;;;;;31.63;23.46;102719.56;5299086;28;20032;-71
2022/08/06 10:58:21;;;;;;;1.85;0.60;;;;;;;30.19;22.71;102712.09;5298127;28;20027;-71
2022/08/06 11:00:52;;;;;;;3.65;0.40;;;;;;;31.42;22.12;102724.94;5298904;28;20016;-71
2022/08/06 11:03:36;;;;;;;5.63;0.77;;;;;;;31.83;22.87;102721.69;5279623;28;20024;-71
2022/08/06 11:06:15;;;;;;;2.95;0.68;;;;;;;31.18;23.17;102718.72;5280323;28;20028;-71
2022/08/06 11:09:21;;;;;;;1.73;0.80;;;;;;;31.92;23.61;102708.03;5298750;28;20059;-70
2022/08/06 11:12:18;;;;;;;1.75;0.80;;;;;;;31.42;24.03;102717.63;5294645;28;20121;-71
2022/08/06 11:14:50;;;;;;;3.70;0.77;;;;;;;31.65;22.18;102715.84;5298796;28;20165;-71
2022/08/06 11:17:21;;;;;;;5.80;0.65;;;;;;;31.24;23.47;102713.44;5297321;28;20028;-70
2022/08/06 11:19:52;;;;;;;2.13;0.55;;;;;;;30.91;23.68;102717.28;5299013;28;20059;-70
2022/08/06 11:22:40;;;;;;;1.95;0.70;;;;;;;30.30;25.13;102720.84;5298297;28;20070;-71
2022/08/06 11:25:12;;;;;;;1.83;0.60;;;;;;;29.98;23.29;102703.75;5298676;28;20107;-71
2022/08/06 11:27:56;;;;;;;1.95;0.82;;;;;;;30.05;23.94;102715.53;5280048;28;20119;-72
2022/08/06 11:30:44;;;;;;;3.75;0.60;;;;;;;30.27;23.95;102716.63;5279691;28;20024;-71
2022/08/06 11:33:43;;;;;;;1.40;0.50;;;;;;;30.15;23.53;102710.75;5297283;28;20471;-71
2022/08/06 11:36:26;;;;;;;2.85;0.60;;;;;;;30.19;24.80;102705.84;5287154;28;20079;-71
2022/08/06 11:38:59;;;;;;;3.42;0.88;;;;;;;29.65;24.33;102697.53;5297904;28;20036;-71
2022/08/06 11:41:33;;;;;;;3.47;0.90;;;;;;;29.80;24.25;102710.25;5297655;28;20048;-71
2022/08/06 11:44:05;;;;;;;2.45;0.80;;;;;;;29.15;24.71;102696.81;5279869;28;20373;-71
2022/08/06 11:46:39;;;;;;;2.88;0.50;;;;;;;29.55;25.33;102696.88;5296882;28;20098;-71
2022/08/06 11:49:13;;;;;;;1.83;0.70;;;;;;;29.43;24.71;102701.81;5298071;28;20572;-71
2022/08/06 11:51:57;;;;;;;1.70;0.70;;;;;;;28.65;25.95;102703.06;5297653;28;20038;-71
2022/08/06 11:54:28;;;;;;;2.38;0.90;;;;;;;28.71;25.09;102701.56;5279621;28;20016;-71
2022/08/06 11:57:04;;;;;;;2.35;0.77;;;;;;;29.48;24.99;102704.81;5297842;28;20475;-71
2022/08/06 11:59:47;;;;;;;4.38;0.60;;;;;;;29.26;24.60;102698.28;5297558;28;20032;-71
2022/08/06 12:02:37;;;;;;;;;;;;;;;29.95;24.64;102692.28;5296868;28;20020;-71
2022/08/06 12:05:28;;;;;;;2.75;0.70;;;;;;;28.79;25.23;102703.41;5297589;28;20255;-71